Time;durP1;ratioP1;P1;durP2;ratioP2;P2;SDS_P1;SDS_P2;PMS_P1;PMS_P2;Temp;Humidity;BMP_temperature;BMP_pressure;BME280_temperature;BME280_humidity;BME280_pressure;Samples;Min_cycle;Max_cycle;Signal;HPM_P1;HPM_P2
2023/09/02 00:00:36;;;;;;;4.70;3.45;;;;;;;15.41;100.00;96103.75;5104771;28;20052;-68
2023/09/02 00:03:01;;;;;;;3.90;3.22;;;;;;;15.41;100.00;96109.06;5114455;27;20133;-69
2023/09/02 00:05:27;;;;;;;4.38;3.17;;;;;;;15.38;100.00;96116.50;5101320;27;20031;-69
2023/09/02 00:07:52;;;;;;;6.65;3.25;;;;;;;15.35;100.00;96133.56;5109972;28;20033;-69
2023/09/02 00:10:18;;;;;;;4.03;3.25;;;;;;;15.31;100.00;96151.63;5105771;27;20094;-69
2023/09/02 00:12:43;;;;;;;5.22;3.47;;;;;;;15.32;100.00;96161.25;5115493;27;20070;-69
2023/09/02 00:15:09;;;;;;;4.90;2.97;;;;;;;15.26;100.00;96195.53;5097175;28;20077;-69
2023/09/02 00:17:35;;;;;;;7.72;4.05;;;;;;;15.27;100.00;96205.16;5104809;27;20024;-69
2023/09/02 00:20:05;;;;;;;3.72;3.30;;;;;;;15.19;100.00;96219.19;5104559;28;20026;-68
2023/09/02 00:22:31;;;;;;;5.82;3.58;;;;;;;15.20;100.00;96239.41;5107554;28;20484;-69
2023/09/02 00:24:56;;;;;;;6.82;3.30;;;;;;;15.20;100.00;96252.69;5105827;27;20108;-68
2023/09/02 00:27:21;;;;;;;4.25;3.45;;;;;;;15.19;100.00;96269.59;5109646;28;20068;-69
2023/09/02 00:29:47;;;;;;;13.48;3.42;;;;;;;15.20;100.00;96284.50;5101931;28;20115;-69
2023/09/02 00:32:12;;;;;;;5.07;3.95;;;;;;;15.17;100.00;96290.97;5104875;28;20044;-69
2023/09/02 00:34:38;;;;;;;7.63;3.97;;;;;;;15.16;100.00;96331.75;5100460;28;20083;-69
2023/09/02 00:37:03;;;;;;;9.98;5.05;;;;;;;15.15;100.00;96351.31;5106757;27;20031;-69
2023/09/02 00:39:29;;;;;;;7.90;5.45;;;;;;;15.11;100.00;96365.00;5105077;28;20027;-69
2023/09/02 00:41:57;;;;;;;7.18;6.38;;;;;;;15.12;100.00;96386.06;5115637;27;20049;-69
2023/09/02 00:44:23;;;;;;;5.68;3.75;;;;;;;15.15;100.00;96383.13;5114460;27;20028;-68
2023/09/02 00:46:49;;;;;;;8.25;3.42;;;;;;;15.11;100.00;96379.09;5109920;27;20028;-69
2023/09/02 00:49:14;;;;;;;4.75;3.50;;;;;;;15.08;100.00;96392.66;5107091;27;20035;-69
2023/09/02 00:51:40;;;;;;;4.97;3.67;;;;;;;15.11;100.00;96413.56;5104322;27;20103;-69
2023/09/02 00:54:05;;;;;;;6.68;3.60;;;;;;;15.12;100.00;96425.03;5109943;27;20020;-68
2023/09/02 00:56:32;;;;;;;8.50;3.90;;;;;;;15.09;100.00;96463.28;5102811;27;20032;-68
2023/09/02 00:59:02;;;;;;;4.38;3.97;;;;;;;15.09;100.00;96476.53;5107583;27;20016;-69
2023/09/02 01:01:29;;;;;;;3.72;3.38;;;;;;;15.10;100.00;96488.81;5104432;27;20024;-69
2023/09/02 01:03:55;;;;;;;4.95;3.75;;;;;;;15.08;100.00;96509.34;5105114;27;20024;-69
2023/09/02 01:06:21;;;;;;;8.48;4.35;;;;;;;15.08;100.00;96529.72;5101156;27;20050;-69
2023/09/02 01:08:47;;;;;;;5.70;3.67;;;;;;;15.00;100.00;96560.47;5103628;27;20035;-69
2023/09/02 01:11:12;;;;;;;5.22;3.88;;;;;;;14.94;100.00;96563.72;5104534;27;20035;-69
2023/09/02 01:13:38;;;;;;;6.25;3.70;;;;;;;14.93;100.00;96585.09;5111604;27;20165;-69
2023/09/02 01:16:03;;;;;;;4.70;4.18;;;;;;;14.88;100.00;96567.78;5118424;27;20039;-69
2023/09/02 01:18:33;;;;;;;5.65;3.38;;;;;;;14.84;100.00;96592.94;5107230;28;20482;-69
2023/09/02 01:21:56;;;;;;;3.75;3.33;;;;;;;14.84;100.00;96616.78;5116548;27;20122;-69
2023/09/02 01:24:55;;;;;;;3.80;3.50;;;;;;;14.84;100.00;96667.16;5072923;28;20068;-69
2023/09/02 01:27:36;;;;;;;5.40;3.53;;;;;;;14.83;100.00;96710.53;5053553;28;20039;-69
2023/09/02 01:30:08;;;;;;;5.93;3.30;;;;;;;14.83;100.00;96738.88;5099281;27;20044;-69
2023/09/02 01:32:39;;;;;;;8.55;3.90;;;;;;;14.78;100.00;96789.66;5128418;27;20558;-69
2023/09/02 01:35:06;;;;;;;5.40;3.97;;;;;;;14.78;100.00;96836.53;5113166;27;20119;-69
2023/09/02 01:37:34;;;;;;;5.45;3.70;;;;;;;14.81;100.00;96855.66;5112083;27;20065;-69
2023/09/02 01:40:03;;;;;;;10.20;3.88;;;;;;;14.82;100.00;96878.53;5112105;27;20076;-69
2023/09/02 01:42:29;;;;;;;4.10;3.70;;;;;;;14.77;100.00;97168.88;5106309;27;20028;-69
2023/09/02 01:44:56;;;;;;;4.30;3.30;;;;;;;14.70;100.00;97283.34;5112866;27;20515;-69
2023/09/02 01:47:23;;;;;;;3.88;3.47;;;;;;;14.66;100.00;97379.16;5110997;28;20556;-69
2023/09/02 01:49:49;;;;;;;6.28;3.70;;;;;;;14.65;100.00;97398.66;5109253;27;20119;-69
2023/09/02 01:52:15;;;;;;;5.60;3.83;;;;;;;14.61;100.00;97408.69;5117482;27;20077;-69
2023/09/02 01:54:41;;;;;;;4.65;3.80;;;;;;;14.55;100.00;97444.50;5106780;27;20499;-69
2023/09/02 01:57:07;;;;;;;5.82;3.40;;;;;;;14.54;100.00;97487.00;5110848;27;20925;-68
2023/09/02 01:59:33;;;;;;;7.28;3.92;;;;;;;14.54;100.00;97514.38;5107758;27;20095;-69
2023/09/02 02:02:00;;;;;;;4.40;3.60;;;;;;;14.57;100.00;97532.66;5119367;27;20034;-68
2023/09/02 02:04:35;;;;;;;6.03;3.40;;;;;;;14.50;100.00;97544.72;5117405;27;20039;-69
2023/09/02 02:07:04;;;;;;;;;;;;;;;14.34;100.00;97574.22;5113044;27;20028;-69
2023/09/02 02:09:35;;;;;;;6.10;3.30;;;;;;;14.31;100.00;97593.00;5109754;27;19953;-68
2023/09/02 02:12:03;;;;;;;6.20;3.42;;;;;;;14.29;100.00;97595.78;5108154;27;20061;-69
2023/09/02 02:14:32;;;;;;;6.07;3.33;;;;;;;14.27;100.00;97583.59;5120862;27;20027;-68
2023/09/02 02:16:58;;;;;;;7.15;3.50;;;;;;;14.26;100.00;97555.44;5109687;27;20496;-68
2023/09/02 02:19:23;;;;;;;3.75;3.45;;;;;;;14.26;100.00;97532.44;5105424;27;20028;-69
2023/09/02 02:21:48;;;;;;;5.45;3.75;;;;;;;14.23;100.00;97500.88;5109262;27;20031;-68
2023/09/02 02:24:14;;;;;;;4.80;3.72;;;;;;;14.20;100.00;97442.03;5109507;27;20057;-69
2023/09/02 02:26:40;;;;;;;5.22;3.38;;;;;;;14.21;100.00;97438.41;5105543;27;20026;-68
2023/09/02 02:29:05;;;;;;;4.25;3.72;;;;;;;14.16;100.00;97405.19;5113287;27;20080;-68
2023/09/02 02:31:31;;;;;;;4.05;3.75;;;;;;;14.18;100.00;97381.22;5101235;27;20052;-68
2023/09/02 02:33:57;;;;;;;5.13;3.78;;;;;;;14.23;100.00;97357.84;5118595;27;20030;-68
2023/09/02 02:36:22;;;;;;;3.97;3.55;;;;;;;14.35;100.00;97353.34;5104908;27;20082;-68
2023/09/02 02:38:48;;;;;;;5.13;3.92;;;;;;;14.33;100.00;97337.59;5115598;27;20024;-68
2023/09/02 02:41:13;;;;;;;4.05;3.65;;;;;;;14.32;100.00;97325.31;5116412;27;20035;-68
2023/09/02 02:43:38;;;;;;;4.60;3.53;;;;;;;14.34;100.00;97314.56;5112653;27;20065;-69
2023/09/02 02:46:04;;;;;;;4.07;3.55;;;;;;;14.33;100.00;97304.94;5113282;27;20038;-68
2023/09/02 02:48:30;;;;;;;3.95;3.65;;;;;;;14.25;100.00;97292.31;5108286;28;20028;-69
2023/09/02 02:50:56;;;;;;;4.03;3.72;;;;;;;14.23;100.00;97288.97;5112387;27;20106;-68
2023/09/02 02:53:22;;;;;;;6.90;4.60;;;;;;;14.21;100.00;97275.00;5111737;27;20065;-69
2023/09/02 02:55:47;;;;;;;5.10;4.05;;;;;;;14.15;100.00;97264.94;5114046;27;20034;-69
2023/09/02 02:58:15;;;;;;;4.03;3.40;;;;;;;14.16;100.00;97259.50;5110737;28;20024;-69
2023/09/02 03:00:42;;;;;;;7.90;4.05;;;;;;;14.15;100.00;97247.25;5112992;27;20030;-69
2023/09/02 03:03:08;;;;;;;9.80;5.00;;;;;;;14.11;100.00;97242.31;5122746;27;20023;-69
2023/09/02 03:05:40;;;;;;;9.05;4.18;;;;;;;14.07;100.00;97235.59;5103001;27;20028;-68
2023/09/02 03:08:07;;;;;;;4.15;3.70;;;;;;;14.05;100.00;97222.47;5113679;27;20015;-69
2023/09/02 03:10:35;;;;;;;4.63;3.80;;;;;;;14.02;100.00;97205.00;5110770;27;20028;-68
2023/09/02 03:13:04;;;;;;;5.70;4.18;;;;;;;13.99;100.00;97199.16;5101676;28;20027;-69
2023/09/02 03:15:30;;;;;;;4.90;3.45;;;;;;;13.94;100.00;97194.22;5103785;27;20114;-69
2023/09/02 03:17:55;;;;;;;4.25;3.85;;;;;;;13.89;100.00;97188.47;5116827;27;20051;-68
2023/09/02 03:20:21;;;;;;;5.18;3.90;;;;;;;13.87;100.00;97182.47;5113192;27;20028;-69
2023/09/02 03:22:46;;;;;;;5.18;4.30;;;;;;;13.92;100.00;97177.63;5108422;27;20030;-69
2023/09/02 03:25:12;;;;;;;4.13;3.80;;;;;;;13.90;100.00;97176.91;5107782;28;20019;-69
2023/09/02 03:27:40;;;;;;;8.85;6.93;;;;;;;13.92;100.00;97174.97;5114325;27;20035;-69
2023/09/02 03:30:07;;;;;;;9.10;6.38;;;;;;;13.94;100.00;97159.81;5111471;27;20035;-69
2023/09/02 03:32:34;;;;;;;5.65;3.83;;;;;;;13.96;100.00;97155.22;5114300;27;20055;-68
2023/09/02 03:34:59;;;;;;;4.40;4.00;;;;;;;13.90;100.00;97153.91;5099543;27;20039;-69
2023/09/02 03:37:26;;;;;;;3.78;3.58;;;;;;;13.88;100.00;97157.69;5109597;27;20077;-69
2023/09/02 03:39:53;;;;;;;4.78;3.75;;;;;;;13.82;100.00;97152.91;5109855;27;20077;-68
2023/09/02 03:42:19;;;;;;;4.78;3.60;;;;;;;13.80;100.00;97149.50;5118753;27;20022;-69
2023/09/02 03:44:44;;;;;;;6.30;4.15;;;;;;;13.77;100.00;97147.13;5117946;27;20023;-68
2023/09/02 03:47:10;;;;;;;6.85;3.78;;;;;;;13.77;100.00;97139.19;5115860;27;20677;-69
2023/09/02 03:49:35;;;;;;;4.72;3.90;;;;;;;13.78;100.00;97143.50;5118467;27;20030;-68
2023/09/02 03:52:00;;;;;;;5.70;3.50;;;;;;;13.80;100.00;97139.78;5110959;28;20031;-68
2023/09/02 03:54:26;;;;;;;5.60;3.58;;;;;;;13.79;100.00;97142.53;5110367;27;20023;-69
2023/09/02 03:56:51;;;;;;;6.45;3.63;;;;;;;13.77;100.00;97129.44;5103759;27;20115;-68
2023/09/02 03:59:19;;;;;;;4.28;3.70;;;;;;;13.77;100.00;97120.66;5107109;27;20126;-68
2023/09/02 04:01:44;;;;;;;4.03;3.72;;;;;;;13.73;100.00;97125.38;5113907;27;20019;-68
2023/09/02 04:04:09;;;;;;;5.10;3.65;;;;;;;13.65;100.00;97120.72;5112536;27;20087;-69
2023/09/02 04:06:35;;;;;;;5.20;3.92;;;;;;;13.61;100.00;97120.13;5110877;27;20024;-68
2023/09/02 04:09:00;;;;;;;3.90;3.60;;;;;;;13.63;100.00;97113.84;5104664;27;20028;-68
2023/09/02 04:11:26;;;;;;;9.10;4.50;;;;;;;13.59;100.00;97106.19;5109174;27;20020;-68
2023/09/02 04:13:51;;;;;;;5.20;4.07;;;;;;;13.58;100.00;97109.78;5114302;27;20039;-68
2023/09/02 04:16:16;;;;;;;4.35;3.95;;;;;;;13.58;100.00;97108.94;5107382;28;20512;-68
2023/09/02 04:18:42;;;;;;;4.10;3.70;;;;;;;13.53;100.00;97097.91;5100927;27;20507;-68
2023/09/02 04:21:10;;;;;;;4.22;3.92;;;;;;;13.48;100.00;97092.16;5103108;27;20450;-69
2023/09/02 04:23:35;;;;;;;5.63;4.20;;;;;;;13.51;100.00;97091.88;5114253;27;20042;-68
2023/09/02 04:26:02;;;;;;;4.32;3.58;;;;;;;13.51;100.00;97078.66;5112718;28;20024;-68
2023/09/02 04:28:28;;;;;;;4.38;3.60;;;;;;;13.49;100.00;97085.88;5106484;28;20458;-68
2023/09/02 04:30:56;;;;;;;4.57;3.97;;;;;;;13.49;100.00;97085.88;5102245;28;20052;-68
2023/09/02 04:33:23;;;;;;;4.70;4.13;;;;;;;13.48;100.00;97081.56;5117147;28;20038;-68
2023/09/02 04:35:49;;;;;;;4.55;4.13;;;;;;;13.48;100.00;97087.69;5097366;28;20074;-68
2023/09/02 04:38:15;;;;;;;5.50;4.53;;;;;;;13.49;100.00;97086.75;5111632;28;20534;-68
2023/09/02 04:40:42;;;;;;;4.15;3.72;;;;;;;13.45;100.00;97096.72;5121368;28;20019;-67
2023/09/02 04:43:09;;;;;;;4.63;4.00;;;;;;;13.45;100.00;97101.16;5119373;28;20472;-67
2023/09/02 04:45:36;;;;;;;4.47;3.67;;;;;;;13.46;100.00;97094.91;5106441;28;20028;-68
2023/09/02 04:48:05;;;;;;;4.80;4.18;;;;;;;13.45;100.00;97094.06;5119552;28;20092;-68
2023/09/02 04:50:31;;;;;;;4.15;3.75;;;;;;;13.43;100.00;97085.44;5107597;28;20023;-68
2023/09/02 04:52:58;;;;;;;8.07;6.28;;;;;;;13.48;100.00;97092.97;5112417;28;20028;-68
2023/09/02 04:55:27;;;;;;;7.82;6.32;;;;;;;13.52;100.00;97097.06;5119871;28;20458;-68
2023/09/02 04:57:53;;;;;;;6.18;3.90;;;;;;;13.55;100.00;97095.97;5101803;28;20028;-68
2023/09/02 05:00:19;;;;;;;5.10;4.05;;;;;;;13.57;100.00;97101.97;5113984;28;20031;-68
2023/09/02 05:02:46;;;;;;;5.63;3.92;;;;;;;13.54;100.00;97108.38;5120048;28;20051;-69
2023/09/02 05:05:14;;;;;;;4.50;4.10;;;;;;;13.54;100.00;97112.81;5100423;28;20483;-68
2023/09/02 05:07:40;;;;;;;8.00;4.15;;;;;;;13.55;100.00;97109.19;5091576;28;20076;-68
2023/09/02 05:10:06;;;;;;;4.65;3.75;;;;;;;13.55;100.00;97104.75;5099079;28;20027;-68
2023/09/02 05:12:33;;;;;;;8.70;4.15;;;;;;;13.52;100.00;97105.00;5100031;28;20019;-68
2023/09/02 05:14:59;;;;;;;5.85;4.38;;;;;;;13.54;100.00;97102.22;5101627;28;20579;-68
2023/09/02 05:17:25;;;;;;;4.65;4.28;;;;;;;13.52;100.00;97106.78;5108744;28;20039;-68
2023/09/02 05:19:50;;;;;;;7.50;4.05;;;;;;;13.48;100.00;97115.94;5106684;28;20407;-68
2023/09/02 05:22:15;;;;;;;5.55;3.72;;;;;;;13.54;100.00;97118.09;5114583;27;20028;-68
2023/09/02 05:24:41;;;;;;;7.15;4.35;;;;;;;13.57;100.00;97118.69;5116832;27;20099;-68
2023/09/02 05:27:06;;;;;;;7.68;4.88;;;;;;;13.56;100.00;97119.66;5120538;27;20054;-68
2023/09/02 05:29:32;;;;;;;4.82;3.85;;;;;;;13.60;100.00;97115.78;5111737;27;20028;-68
2023/09/02 05:31:57;;;;;;;4.05;3.75;;;;;;;13.66;100.00;97113.59;5109822;27;20461;-68
2023/09/02 05:34:23;;;;;;;7.15;4.28;;;;;;;13.72;100.00;97118.41;5109972;27;20020;-68
2023/09/02 05:36:48;;;;;;;6.13;3.60;;;;;;;13.75;100.00;97134.84;5112682;27;20028;-68
2023/09/02 05:39:13;;;;;;;4.28;3.88;;;;;;;13.74;100.00;97146.41;5113300;27;20020;-68
2023/09/02 05:41:39;;;;;;;4.82;3.70;;;;;;;13.78;100.00;97154.09;5112566;27;20019;-69
2023/09/02 05:44:04;;;;;;;6.65;3.63;;;;;;;13.82;100.00;97158.19;5119786;27;20023;-69
2023/09/02 05:46:30;;;;;;;6.30;3.97;;;;;;;13.89;100.00;97168.13;5121618;27;20019;-68
2023/09/02 05:48:55;;;;;;;8.45;4.55;;;;;;;13.92;100.00;97172.34;5121532;27;20016;-68
2023/09/02 05:51:21;;;;;;;4.30;3.90;;;;;;;13.90;100.00;97171.63;5098760;28;20027;-68
2023/09/02 05:53:46;;;;;;;6.72;3.88;;;;;;;13.95;100.00;97173.91;5105446;27;20020;-68
2023/09/02 05:56:12;;;;;;;6.00;4.00;;;;;;;14.03;100.00;97179.38;5096949;27;20034;-68
2023/09/02 05:58:38;;;;;;;6.35;3.95;;;;;;;14.09;100.00;97192.13;5104794;27;20028;-67
2023/09/02 06:01:04;;;;;;;5.82;4.00;;;;;;;14.07;100.00;97187.94;5108780;27;20023;-67
2023/09/02 06:03:30;;;;;;;6.07;4.20;;;;;;;14.15;100.00;97188.97;5088287;28;20118;-67
2023/09/02 06:05:55;;;;;;;5.53;4.22;;;;;;;14.21;100.00;97206.16;5111949;27;20055;-67
2023/09/02 06:08:20;;;;;;;7.95;4.10;;;;;;;14.30;100.00;97218.63;5104580;27;20031;-68
2023/09/02 06:10:57;;;;;;;4.95;3.83;;;;;;;14.33;100.00;97223.69;5116491;27;20020;-67
2023/09/02 06:13:22;;;;;;;5.88;4.13;;;;;;;14.35;100.00;97235.94;5117847;27;20123;-67
2023/09/02 06:15:47;;;;;;;4.80;4.07;;;;;;;14.38;100.00;97249.78;5112313;27;20122;-68
2023/09/02 06:18:13;;;;;;;7.80;4.00;;;;;;;14.36;100.00;97251.69;5101421;27;20056;-67
2023/09/02 06:20:38;;;;;;;4.03;3.67;;;;;;;14.40;100.00;97258.44;5108457;27;20024;-67
2023/09/02 06:23:03;;;;;;;6.95;3.90;;;;;;;14.46;100.00;97270.31;5117100;27;20073;-68
2023/09/02 06:25:29;;;;;;;5.15;4.40;;;;;;;14.55;100.00;97277.53;5113191;27;20054;-67
2023/09/02 06:27:57;;;;;;;4.25;3.85;;;;;;;14.60;100.00;97285.94;5108339;27;20035;-67
2023/09/02 06:30:23;;;;;;;6.38;3.90;;;;;;;14.67;100.00;97296.00;5109376;27;20031;-68
2023/09/02 06:32:48;;;;;;;4.40;4.00;;;;;;;14.73;100.00;97304.31;5104695;27;20032;-67
2023/09/02 06:35:15;;;;;;;7.43;4.10;;;;;;;14.82;100.00;97315.97;5118282;27;20038;-67
2023/09/02 06:37:43;;;;;;;4.20;3.67;;;;;;;14.88;100.00;97322.56;5108359;27;20059;-67
2023/09/02 06:40:09;;;;;;;6.45;3.88;;;;;;;14.93;100.00;97330.97;5106603;27;20116;-68
2023/09/02 06:42:35;;;;;;;7.20;4.38;;;;;;;15.09;100.00;97335.81;5114432;27;20027;-67
2023/09/02 06:45:01;;;;;;;6.20;3.67;;;;;;;15.31;100.00;97355.22;5116791;27;20030;-67
2023/09/02 06:47:26;;;;;;;4.90;3.75;;;;;;;15.49;100.00;97371.41;5110417;27;20031;-68
2023/09/02 06:49:51;;;;;;;5.68;3.55;;;;;;;15.71;100.00;97396.91;5120891;27;20055;-67
2023/09/02 06:52:17;;;;;;;3.92;3.53;;;;;;;15.98;100.00;97415.94;5115540;27;20031;-67
2023/09/02 06:54:43;;;;;;;4.30;3.67;;;;;;;16.24;100.00;97456.16;5113682;27;20051;-68
2023/09/02 06:57:08;;;;;;;3.75;3.40;;;;;;;16.61;100.00;97478.66;5102481;27;20032;-68
2023/09/02 06:59:34;;;;;;;6.38;3.63;;;;;;;17.06;100.00;97522.59;5098978;27;20073;-68
2023/09/02 07:01:59;;;;;;;3.35;3.15;;;;;;;17.45;100.00;97556.38;5112957;27;20019;-68
2023/09/02 07:04:25;;;;;;;4.97;3.40;;;;;;;17.88;100.00;97540.94;5105119;28;20045;-68
2023/09/02 07:06:50;;;;;;;5.05;3.20;;;;;;;18.37;100.00;97497.34;5115786;27;20023;-68
2023/09/02 07:09:15;;;;;;;3.28;2.97;;;;;;;18.76;100.00;97411.78;5104500;27;20624;-68
2023/09/02 07:11:41;;;;;;;5.07;3.03;;;;;;;19.15;100.00;97294.03;5104197;27;20035;-68
2023/09/02 07:14:06;;;;;;;3.80;3.40;;;;;;;19.56;100.00;97186.59;5104201;27;20020;-68
2023/09/02 07:16:32;;;;;;;3.47;3.05;;;;;;;19.82;100.00;97110.81;5106382;27;20027;-68
2023/09/02 07:18:58;;;;;;;5.18;2.92;;;;;;;20.24;100.00;97063.59;5097043;27;20023;-68
2023/09/02 07:21:24;;;;;;;3.55;3.10;;;;;;;20.63;100.00;96972.84;5106509;27;20430;-68
2023/09/02 07:23:51;;;;;;;3.40;2.80;;;;;;;20.92;100.00;96837.59;5116248;27;20576;-68
2023/09/02 07:26:17;;;;;;;3.20;2.83;;;;;;;21.15;100.00;96775.97;5090208;28;20077;-69
2023/09/02 07:28:42;;;;;;;5.00;2.85;;;;;;;21.21;100.00;96755.66;5107320;27;20105;-68
2023/09/02 07:31:11;;;;;;;3.20;2.90;;;;;;;21.32;100.00;96761.41;5113066;27;20595;-68
2023/09/02 07:33:37;;;;;;;5.88;2.92;;;;;;;21.62;100.00;96752.53;5106953;27;20034;-68
2023/09/02 07:36:13;;;;;;;3.25;2.88;;;;;;;21.72;100.00;96710.22;5100651;27;20075;-68
2023/09/02 07:38:40;;;;;;;3.15;2.60;;;;;;;21.81;100.00;96720.84;5113550;27;20049;-68
2023/09/02 07:41:06;;;;;;;3.42;2.67;;;;;;;21.64;100.00;96723.69;5108166;27;20563;-68
2023/09/02 07:43:32;;;;;;;5.45;2.42;;;;;;;21.80;100.00;96724.56;5111782;27;21256;-70
2023/09/02 07:45:57;;;;;;;3.65;2.25;;;;;;;21.94;100.00;96728.22;5096576;28;20099;-70
2023/09/02 07:48:23;;;;;;;4.63;2.97;;;;;;;22.03;100.00;96711.81;5104704;27;20024;-70
2023/09/02 07:50:48;;;;;;;3.28;2.67;;;;;;;22.02;100.00;96696.75;5101164;27;20483;-69
2023/09/02 07:53:14;;;;;;;3.40;2.30;;;;;;;21.92;100.00;96690.03;5106811;28;20031;-69
2023/09/02 07:55:40;;;;;;;2.83;2.63;;;;;;;21.99;100.00;96718.56;5111439;27;20601;-70
2023/09/02 07:58:06;;;;;;;5.07;2.83;;;;;;;21.83;100.00;96718.81;5101842;27;20020;-69
2023/09/02 08:00:35;;;;;;;4.82;3.00;;;;;;;21.81;100.00;96735.06;5122776;27;20079;-69
2023/09/02 08:03:02;;;;;;;7.50;2.67;;;;;;;21.82;100.00;96744.75;5102049;27;20553;-70
2023/09/02 08:05:27;;;;;;;3.35;2.63;;;;;;;22.17;100.00;96709.25;5111548;27;20044;-70
2023/09/02 08:07:53;;;;;;;2.70;2.50;;;;;;;22.59;100.00;96686.16;5116077;27;20494;-69
2023/09/02 08:10:19;;;;;;;4.35;2.55;;;;;;;23.08;100.00;96640.63;5099427;28;20020;-70
2023/09/02 08:12:45;;;;;;;5.63;2.80;;;;;;;23.14;100.00;96545.88;5112414;27;20032;-70
2023/09/02 08:15:11;;;;;;;6.43;2.58;;;;;;;23.57;100.00;96530.53;5109412;28;20028;-70
2023/09/02 08:17:38;;;;;;;4.25;2.63;;;;;;;23.88;100.00;96588.25;5103752;27;20038;-70
2023/09/02 08:20:05;;;;;;;2.80;2.60;;;;;;;24.12;100.00;96559.13;5115874;28;20593;-70
2023/09/02 08:22:31;;;;;;;2.50;2.30;;;;;;;24.06;100.00;96517.75;5108089;28;20024;-70
2023/09/02 08:24:56;;;;;;;2.60;2.40;;;;;;;24.31;100.00;96426.47;5113563;28;20019;-69
2023/09/02 08:27:24;;;;;;;5.50;2.50;;;;;;;24.31;100.00;96442.59;5119446;27;20026;-69
2023/09/02 08:29:50;;;;;;;3.90;2.67;;;;;;;24.30;100.00;96453.56;5115384;27;20089;-68
2023/09/02 08:32:15;;;;;;;3.85;2.75;;;;;;;24.13;100.00;96489.00;5108821;28;20059;-72
2023/09/02 08:34:41;;;;;;;3.72;2.75;;;;;;;24.23;100.00;96490.41;5110258;28;20041;-71
2023/09/02 08:37:06;;;;;;;8.20;2.65;;;;;;;23.84;100.00;96492.91;5120528;28;20034;-71
2023/09/02 08:39:32;;;;;;;2.63;2.42;;;;;;;23.64;100.00;96520.59;5118972;28;20107;-69
2023/09/02 08:41:58;;;;;;;5.25;2.88;;;;;;;23.78;100.00;96534.06;5110224;28;20020;-71
2023/09/02 08:44:27;;;;;;;3.53;2.47;;;;;;;23.64;100.00;96507.16;5119782;28;20414;-70
2023/09/02 08:46:53;;;;;;;4.47;2.63;;;;;;;23.99;100.00;96488.16;5111434;28;20613;-70
2023/09/02 08:49:20;;;;;;;2.65;2.33;;;;;;;24.21;100.00;96431.47;5125277;28;20019;-70
2023/09/02 08:51:46;;;;;;;4.65;2.72;;;;;;;24.31;100.00;96426.47;5102150;28;20032;-69
2023/09/02 08:54:13;;;;;;;3.63;2.58;;;;;;;24.53;100.00;96436.94;5116609;28;20030;-69
2023/09/02 08:56:42;;;;;;;2.97;2.47;;;;;;;24.77;100.00;96415.75;5105324;27;20020;-69
2023/09/02 08:59:13;;;;;;;2.97;2.47;;;;;;;24.81;100.00;96387.38;5119783;27;20019;-69
2023/09/02 09:01:43;;;;;;;2.42;2.33;;;;;;;24.50;100.00;96432.00;5121190;27;20027;-70
2023/09/02 09:04:10;;;;;;;3.00;2.70;;;;;;;24.45;100.00;96384.19;5124019;27;20055;-69
2023/09/02 09:06:37;;;;;;;3.10;2.90;;;;;;;24.38;100.00;96402.22;5125344;27;20039;-70
2023/09/02 09:09:03;;;;;;;4.68;2.97;;;;;;;24.30;100.00;96384.47;5118068;27;20028;-69
2023/09/02 09:11:35;;;;;;;3.20;2.90;;;;;;;24.02;100.00;96396.34;5117579;27;20114;-71
2023/09/02 09:14:02;;;;;;;3.20;2.90;;;;;;;23.79;100.00;96420.13;5106510;27;20548;-70
2023/09/02 09:16:36;;;;;;;5.50;3.17;;;;;;;23.73;100.00;96419.91;5113978;27;20683;-70
2023/09/02 09:19:03;;;;;;;5.55;3.42;;;;;;;23.60;100.00;96444.13;5116823;27;20041;-70
2023/09/02 09:21:28;;;;;;;3.92;3.00;;;;;;;23.67;100.00;96438.75;5110091;27;20114;-71
2023/09/02 09:23:54;;;;;;;4.38;3.17;;;;;;;23.37;100.00;96464.16;5126257;27;20062;-72
2023/09/02 09:26:21;;;;;;;4.05;2.83;;;;;;;23.47;100.00;96461.06;5120945;27;20027;-72
2023/09/02 09:28:58;;;;;;;5.63;3.35;;;;;;;23.34;100.00;96461.88;5110421;27;20051;-71
2023/09/02 09:31:25;;;;;;;3.80;3.03;;;;;;;23.37;100.00;96482.09;5115686;27;20043;-72
2023/09/02 09:33:58;;;;;;;4.80;3.45;;;;;;;23.42;100.00;96471.56;5120340;27;20582;-72
2023/09/02 09:36:25;;;;;;;5.43;3.20;;;;;;;23.54;100.00;96456.50;5120386;27;20050;-72
2023/09/02 09:38:54;;;;;;;3.03;2.70;;;;;;;23.55;100.00;96419.72;5129450;27;20508;-71
2023/09/02 09:41:19;;;;;;;3.38;3.08;;;;;;;23.65;100.00;96395.09;5100728;27;20020;-71
2023/09/02 09:44:05;;;;;;;5.90;2.95;;;;;;;23.58;100.00;96387.06;5113676;27;20057;-71
2023/09/02 09:46:53;;;;;;;5.13;3.15;;;;;;;23.39;100.00;96421.78;5112394;27;20111;-72
2023/09/02 09:49:29;;;;;;;4.18;3.40;;;;;;;23.68;100.00;96418.91;5108746;27;20036;-70
2023/09/02 09:52:01;;;;;;;6.53;3.70;;;;;;;23.48;100.00;96403.59;5109788;27;20028;-68
2023/09/02 09:54:39;;;;;;;5.22;4.30;;;;;;;23.52;100.00;96420.97;5102825;27;20031;-69
2023/09/02 09:57:07;;;;;;;4.35;3.60;;;;;;;23.78;100.00;96405.03;5116769;27;20031;-68
2023/09/02 09:59:35;;;;;;;5.38;3.85;;;;;;;23.58;100.00;96360.19;5120487;27;20027;-68
2023/09/02 10:02:04;;;;;;;4.78;4.00;;;;;;;23.74;100.00;96369.69;5118592;27;20018;-69
2023/09/02 10:04:31;;;;;;;4.40;3.53;;;;;;;23.49;100.00;96353.34;5111470;27;20028;-68
2023/09/02 10:07:00;;;;;;;4.68;3.60;;;;;;;23.59;100.00;96380.66;5106181;27;20110;-68
2023/09/02 10:09:43;;;;;;;3.90;3.45;;;;;;;23.79;100.00;96318.78;5113942;27;20032;-69
2023/09/02 10:12:11;;;;;;;3.72;3.42;;;;;;;23.59;100.00;96329.59;5108807;27;20386;-68
2023/09/02 10:14:38;;;;;;;6.93;3.83;;;;;;;23.94;100.00;96318.53;5114287;27;20067;-68
2023/09/02 10:17:05;;;;;;;3.83;3.53;;;;;;;23.86;100.00;96292.72;5110961;27;20051;-68
2023/09/02 10:19:33;;;;;;;4.32;3.38;;;;;;;23.74;100.00;96289.03;5110022;27;20038;-69
2023/09/02 10:21:58;;;;;;;4.05;3.42;;;;;;;24.07;100.00;96271.16;5108834;27;20023;-69
2023/09/02 10:24:28;;;;;;;4.18;3.17;;;;;;;24.15;100.00;96258.31;5128187;27;20039;-69
2023/09/02 10:26:58;;;;;;;3.47;3.10;;;;;;;24.32;100.00;96258.63;5122699;27;20073;-69
2023/09/02 10:29:32;;;;;;;4.32;2.90;;;;;;;24.24;100.00;96241.91;5120945;27;20066;-69
2023/09/02 10:32:04;;;;;;;4.53;2.80;;;;;;;24.31;100.00;96226.53;5109503;27;20055;-69
2023/09/02 10:34:57;;;;;;;4.57;3.47;;;;;;;24.51;100.00;96196.00;5118948;27;20377;-69
2023/09/02 10:37:26;;;;;;;5.60;3.25;;;;;;;24.59;100.00;96233.44;5110956;27;20034;-69
2023/09/02 10:39:59;;;;;;;4.63;3.20;;;;;;;24.61;100.00;96193.66;5112002;27;20431;-68
2023/09/02 10:42:27;;;;;;;3.20;3.00;;;;;;;24.46;100.00;96210.13;5121031;27;20072;-69
2023/09/02 10:44:53;;;;;;;3.45;3.15;;;;;;;24.53;100.00;96237.81;5119137;27;20080;-70
2023/09/02 10:47:19;;;;;;;4.32;3.15;;;;;;;24.53;100.00;96227.03;5117751;27;20038;-69
2023/09/02 10:49:46;;;;;;;2.88;2.67;;;;;;;24.57;100.00;96190.56;5116481;27;20023;-70
2023/09/02 10:52:13;;;;;;;4.07;3.10;;;;;;;25.03;100.00;96140.09;5117732;27;20015;-69
2023/09/02 10:55:04;;;;;;;4.13;3.20;;;;;;;25.06;100.00;96128.03;5109678;27;20024;-70
2023/09/02 10:57:47;;;;;;;4.85;3.10;;;;;;;25.18;100.00;96093.94;5109455;27;20495;-70
2023/09/02 11:00:19;;;;;;;4.35;2.80;;;;;;;25.25;100.00;96042.66;5098724;27;20031;-70
2023/09/02 11:02:46;;;;;;;3.30;3.00;;;;;;;25.37;100.00;96033.81;5120636;27;20019;-70
2023/09/02 11:05:12;;;;;;;3.03;2.80;;;;;;;25.50;100.00;96033.66;5116195;27;20035;-69
2023/09/02 11:07:39;;;;;;;3.83;2.95;;;;;;;25.57;100.00;96009.31;5115836;27;20030;-70
2023/09/02 11:10:06;;;;;;;4.68;3.08;;;;;;;25.60;100.00;96038.50;5108408;27;20023;-70
2023/09/02 11:12:33;;;;;;;4.00;3.00;;;;;;;25.91;100.00;96030.38;5109133;27;20154;-70
2023/09/02 11:15:07;;;;;;;5.00;3.30;;;;;;;25.53;100.00;96035.06;5119535;27;20023;-70
2023/09/02 11:17:34;;;;;;;5.30;3.05;;;;;;;25.84;100.00;96008.91;5116591;27;20016;-70
2023/09/02 11:20:08;;;;;;;2.95;2.72;;;;;;;25.88;100.00;96002.00;5122649;27;20087;-70
2023/09/02 11:23:04;;;;;;;6.17;3.03;;;;;;;26.38;100.00;95976.50;5112973;27;20028;-70
2023/09/02 11:25:42;;;;;;;5.60;3.05;;;;;;;26.63;100.00;95963.78;5117028;27;20258;-70